createdAt,value
2022-08-19T00:02:01.922Z,23.05
2022-08-19T00:04:33.562Z,22.91
2022-08-19T00:07:00.947Z,22.88
2022-08-19T00:09:28.439Z,22.74
2022-08-19T00:11:57.394Z,22.74
2022-08-19T00:14:26.313Z,22.81
2022-08-19T00:16:55.475Z,22.55
2022-08-19T00:19:23.777Z,22.52
2022-08-19T00:21:51.233Z,22.58
2022-08-19T00:24:17.943Z,22.25
2022-08-19T00:26:46.427Z,22.59
2022-08-19T00:29:16.011Z,22.79
2022-08-19T00:31:44.110Z,22.89
2022-08-19T00:34:12.892Z,22.86
2022-08-19T00:36:40.588Z,22.88
2022-08-19T00:39:07.674Z,22.90
2022-08-19T00:41:34.784Z,22.87
2022-08-19T00:44:15.788Z,22.81
2022-08-19T00:46:45.025Z,22.81
2022-08-19T00:49:38.772Z,22.69
2022-08-19T00:52:09.614Z,22.60
2022-08-19T00:54:38.212Z,22.65
2022-08-19T00:57:08.939Z,22.70
2022-08-19T01:00:00.272Z,22.77
2022-08-19T01:02:28.679Z,22.76
2022-08-19T01:04:55.808Z,22.75
2022-08-19T01:07:22.707Z,22.68
2022-08-19T01:09:50.908Z,22.67
2022-08-19T01:12:19.192Z,22.80
2022-08-19T01:14:47.727Z,22.84
2022-08-19T01:17:16.125Z,22.71
2022-08-19T01:19:46.207Z,22.59
2022-08-19T01:22:16.689Z,22.80
2022-08-19T01:24:47.426Z,22.82
2022-08-19T01:27:17.868Z,22.69
2022-08-19T01:29:46.032Z,22.69
2022-08-19T01:32:33.533Z,22.76
2022-08-19T01:35:02.859Z,22.78
2022-08-19T01:37:30.450Z,22.76
2022-08-19T01:39:57.488Z,22.51
2022-08-19T01:42:30.307Z,22.55
2022-08-19T01:44:58.480Z,22.67
2022-08-19T01:47:25.410Z,22.75
2022-08-19T01:49:52.133Z,22.77
2022-08-19T01:52:18.778Z,22.76
2022-08-19T01:54:45.472Z,22.52
2022-08-19T01:57:14.468Z,22.39
2022-08-19T01:59:43.854Z,22.25
2022-08-19T02:02:10.552Z,22.27
2022-08-19T02:04:39.147Z,22.28
2022-08-19T02:07:07.351Z,22.31
2022-08-19T02:09:34.152Z,22.45
2022-08-19T02:12:01.003Z,22.54
2022-08-19T02:14:28.099Z,22.57
2022-08-19T02:16:54.736Z,22.47
2022-08-19T02:19:21.520Z,22.55
2022-08-19T02:21:48.499Z,22.46
2022-08-19T02:24:15.214Z,22.49
2022-08-19T02:26:41.861Z,22.49
2022-08-19T02:29:08.836Z,22.46
2022-08-19T02:31:35.510Z,22.46
2022-08-19T02:34:02.242Z,22.55
2022-08-19T02:36:29.215Z,22.61
2022-08-19T02:38:56.976Z,22.45
2022-08-19T02:41:29.280Z,22.43
2022-08-19T02:44:29.791Z,22.50
2022-08-19T02:46:47.433Z,22.55
2022-08-19T02:49:17.547Z,22.45
2022-08-19T02:51:46.517Z,22.28
2022-08-19T02:54:14.656Z,22.43
2022-08-19T02:56:44.131Z,22.19
2022-08-19T02:59:11.164Z,22.00
2022-08-19T03:01:40.725Z,22.12
2022-08-19T03:04:09.134Z,22.14
2022-08-19T03:06:41.798Z,22.17
2022-08-19T03:09:09.059Z,22.28
2022-08-19T03:11:35.912Z,22.29
2022-08-19T03:14:04.685Z,22.28
2022-08-19T03:16:34.983Z,22.34
2022-08-19T03:19:02.758Z,22.05
2022-08-19T03:21:34.828Z,21.99
2022-08-19T03:24:08.805Z,22.23
2022-08-19T03:26:40.801Z,22.25
2022-08-19T03:29:11.724Z,22.17
2022-08-19T03:31:51.080Z,22.09
2022-08-19T03:34:29.774Z,22.15
2022-08-19T03:36:59.475Z,22.22
2022-08-19T03:39:27.412Z,22.28
2022-08-19T03:42:29.207Z,22.45
2022-08-19T03:44:45.946Z,22.47
2022-08-19T03:49:44.831Z,21.92
2022-08-19T03:52:11.533Z,21.95
2022-08-19T03:54:39.378Z,22.29
2022-08-19T03:57:07.128Z,22.34
2022-08-19T03:59:36.416Z,22.29
2022-08-19T04:02:09.448Z,22.39
2022-08-19T04:04:37.005Z,22.71
2022-08-19T04:07:03.942Z,22.68
2022-08-19T04:09:30.594Z,22.73
2022-08-19T04:11:58.567Z,22.80
2022-08-19T04:14:30.492Z,22.84
2022-08-19T04:16:58.051Z,22.75
2022-08-19T04:19:24.932Z,22.54
2022-08-19T04:21:54.419Z,22.33
2022-08-19T04:24:22.839Z,22.44
2022-08-19T04:26:50.292Z,22.51
2022-08-19T04:29:23.094Z,22.58
2022-08-19T04:31:50.849Z,22.66
2022-08-19T04:34:23.288Z,22.72
2022-08-19T04:36:52.106Z,22.68
2022-08-19T04:39:23.264Z,22.61
2022-08-19T04:42:08.240Z,22.66
2022-08-19T04:44:39.875Z,22.75
2022-08-19T04:47:13.306Z,22.80
2022-08-19T04:49:40.057Z,22.75
2022-08-19T04:52:06.739Z,22.84
2022-08-19T04:54:37.645Z,22.79
2022-08-19T04:57:08.479Z,22.70
2022-08-19T04:59:36.188Z,22.72
2022-08-19T05:02:03.905Z,22.81
2022-08-19T05:04:33.358Z,22.75
2022-08-19T05:07:01.907Z,22.77
2022-08-19T05:09:53.299Z,22.80
2022-08-19T05:12:17.743Z,22.88
2022-08-19T05:14:46.050Z,22.75
2022-08-19T05:17:27.272Z,22.43
2022-08-19T05:20:14.592Z,22.58
2022-08-19T05:22:43.447Z,22.37
2022-08-19T05:25:14.696Z,22.38
2022-08-19T05:27:43.105Z,22.65
2022-08-19T05:30:12.278Z,22.56
2022-08-19T05:32:40.268Z,22.39
2022-08-19T05:35:07.496Z,22.62
2022-08-19T05:37:34.296Z,22.60
2022-08-19T05:40:01.193Z,22.62
2022-08-19T05:42:27.867Z,22.62
2022-08-19T05:44:54.761Z,22.76
2022-08-19T05:47:22.293Z,22.67
2022-08-19T05:49:50.878Z,22.76
2022-08-19T05:52:18.991Z,22.75
2022-08-19T05:54:51.501Z,22.56
2022-08-19T05:57:19.904Z,22.57
2022-08-19T05:59:52.715Z,22.77
2022-08-19T06:02:24.744Z,22.84
2022-08-19T06:04:51.422Z,22.84
2022-08-19T06:07:18.058Z,22.78
2022-08-19T06:09:59.048Z,22.88
2022-08-19T06:12:31.662Z,22.92
2022-08-19T06:15:01.659Z,22.77
2022-08-19T06:17:31.466Z,22.90
2022-08-19T06:19:59.496Z,22.82
2022-08-19T06:22:26.808Z,22.88
2022-08-19T06:24:55.027Z,23.09
2022-08-19T06:27:22.657Z,23.15
2022-08-19T06:29:50.930Z,23.06
2022-08-19T06:32:19.642Z,23.20
2022-08-19T06:34:47.368Z,23.29
2022-08-19T06:37:14.502Z,23.37
2022-08-19T06:39:44.183Z,23.35
2022-08-19T06:42:14.301Z,23.25
2022-08-19T06:44:43.785Z,23.36
2022-08-19T06:47:23.368Z,23.35
2022-08-19T06:49:55.149Z,23.25
2022-08-19T06:52:27.766Z,23.03
2022-08-19T06:54:56.990Z,23.23
2022-08-19T06:57:27.630Z,23.33
2022-08-19T06:59:54.520Z,23.49
2022-08-19T07:02:21.823Z,23.51
2022-08-19T07:04:52.643Z,23.42
2022-08-19T07:07:21.871Z,23.56
2022-08-19T07:09:51.766Z,23.65
2022-08-19T07:12:30.939Z,23.73
2022-08-19T07:14:59.029Z,23.56
2022-08-19T07:17:26.906Z,23.46
2022-08-19T07:19:54.110Z,23.03
2022-08-19T07:22:24.347Z,23.10
2022-08-19T07:24:52.697Z,22.98
2022-08-19T07:27:24.356Z,22.85
2022-08-19T07:29:56.163Z,22.98
2022-08-19T07:32:26.848Z,22.93
2022-08-19T07:34:53.670Z,22.91
2022-08-19T07:37:20.332Z,22.69
2022-08-19T07:39:47.045Z,22.68
2022-08-19T07:42:14.750Z,22.52
2022-08-19T07:44:42.287Z,22.63
2022-08-19T07:47:48.306Z,22.40
2022-08-19T07:50:07.768Z,22.53
2022-08-19T07:52:36.935Z,22.62
2022-08-19T07:55:05.273Z,22.74
2022-08-19T07:57:32.227Z,22.84
2022-08-19T07:59:59.990Z,22.86
2022-08-19T08:02:26.987Z,22.85
2022-08-19T08:05:12.404Z,23.02
2022-08-19T08:07:59.151Z,23.06
2022-08-19T08:10:26.162Z,23.37
2022-08-19T08:13:08.559Z,23.52
2022-08-19T08:15:42.630Z,23.79
2022-08-19T08:18:10.858Z,23.86
2022-08-19T08:20:37.739Z,24.12
2022-08-19T08:23:23.234Z,24.05
2022-08-19T08:25:50.454Z,24.30
2022-08-19T08:28:20.864Z,24.48
2022-08-19T08:30:50.632Z,24.58
2022-08-19T08:33:33.236Z,24.68
2022-08-19T08:36:10.410Z,24.80
2022-08-19T08:38:40.493Z,24.90
2022-08-19T08:41:20.731Z,24.96
2022-08-19T08:43:50.199Z,24.73
2022-08-19T08:46:31.381Z,24.74
2022-08-19T08:49:02.643Z,24.72
2022-08-19T08:51:44.065Z,24.75
2022-08-19T08:54:19.395Z,24.81
2022-08-19T08:56:48.882Z,25.05
2022-08-19T08:59:36.341Z,25.37
2022-08-19T09:02:03.304Z,25.66
2022-08-19T09:04:30.326Z,25.57
2022-08-19T09:07:33.866Z,25.51
2022-08-19T09:09:57.481Z,25.60
2022-08-19T09:12:47.297Z,25.75
2022-08-19T09:15:17.200Z,25.43
2022-08-19T09:17:43.850Z,25.46
2022-08-19T09:20:21.295Z,25.50
2022-08-19T09:22:50.191Z,25.68
2022-08-19T09:25:26.804Z,25.75
2022-08-19T09:28:01.168Z,25.79
2022-08-19T09:30:33.251Z,25.77
2022-08-19T09:33:00.761Z,25.88
2022-08-19T09:35:30.513Z,25.90
2022-08-19T09:38:00.073Z,25.93
2022-08-19T09:40:32.622Z,25.94
2022-08-19T09:43:09.969Z,26.00
2022-08-19T09:45:39.686Z,25.83
2022-08-19T09:48:07.251Z,25.91
2022-08-19T09:50:36.026Z,26.06
2022-08-19T09:53:02.726Z,26.11
2022-08-19T09:55:31.840Z,26.15
2022-08-19T09:58:00.811Z,26.14
2022-08-19T10:00:27.886Z,26.01
2022-08-19T10:02:54.528Z,26.05
2022-08-19T10:05:42.394Z,26.20
2022-08-19T10:08:13.103Z,26.15
2022-08-19T10:10:46.323Z,26.20
2022-08-19T10:13:15.305Z,26.41
2022-08-19T10:15:47.438Z,26.41
2022-08-19T10:18:17.732Z,26.56
2022-08-19T10:20:46.488Z,26.69
2022-08-19T10:23:21.075Z,26.90
2022-08-19T10:25:49.083Z,26.84
2022-08-19T10:28:16.094Z,26.74
2022-08-19T10:30:47.520Z,26.76
2022-08-19T10:33:15.026Z,26.68
2022-08-19T10:35:42.594Z,26.68
2022-08-19T10:38:22.916Z,26.78
2022-08-19T10:40:59.569Z,26.92
2022-08-19T10:43:26.270Z,27.07
2022-08-19T10:45:59.483Z,27.02
2022-08-19T10:48:26.292Z,27.02
2022-08-19T10:51:22.754Z,27.00
2022-08-19T10:53:50.655Z,27.07
2022-08-19T10:56:36.984Z,27.04
2022-08-19T10:59:04.408Z,27.20
2022-08-19T11:01:34.242Z,27.27
2022-08-19T11:04:03.345Z,27.16
2022-08-19T11:06:32.683Z,27.15
2022-08-19T11:09:00.991Z,27.09
2022-08-19T11:11:29.440Z,27.07
2022-08-19T11:13:56.576Z,27.19
2022-08-19T11:16:26.337Z,27.17
2022-08-19T11:18:55.983Z,27.16
2022-08-19T11:21:26.786Z,26.96
2022-08-19T11:23:56.945Z,27.11
2022-08-19T11:26:25.190Z,27.08
2022-08-19T11:28:55.253Z,27.00
2022-08-19T11:31:29.497Z,27.04
2022-08-19T11:34:00.931Z,26.76
2022-08-19T11:36:28.280Z,26.42
2022-08-19T11:38:55.046Z,26.37
2022-08-19T11:41:24.390Z,26.52
2022-08-19T11:43:53.939Z,26.64
2022-08-19T11:46:21.109Z,26.52
2022-08-19T11:48:49.107Z,26.72
2022-08-19T11:51:19.847Z,26.53
2022-08-19T11:53:46.769Z,26.48
2022-08-19T11:56:13.711Z,26.27
2022-08-19T11:58:43.070Z,26.01
2022-08-19T12:01:12.132Z,25.97
2022-08-19T12:03:39.360Z,25.95
2022-08-19T12:06:08.453Z,26.21
2022-08-19T12:08:35.679Z,26.11
2022-08-19T12:11:02.532Z,26.05
2022-08-19T12:13:31.110Z,25.94
2022-08-19T12:15:59.277Z,25.84
2022-08-19T12:18:26.035Z,25.89
2022-08-19T12:20:55.604Z,25.95
2022-08-19T12:23:22.287Z,25.78
2022-08-19T12:25:52.885Z,25.98
2022-08-19T12:28:25.074Z,26.14
2022-08-19T12:30:52.380Z,25.97
2022-08-19T12:33:24.580Z,26.25
2022-08-19T12:35:51.564Z,26.65
2022-08-19T12:38:18.838Z,26.85
2022-08-19T12:40:50.474Z,26.97
2022-08-19T12:43:17.150Z,26.78
2022-08-19T12:45:45.144Z,26.66
2022-08-19T12:48:34.855Z,26.88
2022-08-19T12:51:06.558Z,26.67
2022-08-19T12:53:33.215Z,26.68
2022-08-19T12:56:01.482Z,26.30
2022-08-19T12:58:29.938Z,26.52
2022-08-19T13:00:56.735Z,26.77
2022-08-19T13:03:28.479Z,27.22
2022-08-19T13:05:55.146Z,27.92
2022-08-19T13:08:21.788Z,28.47
2022-08-19T13:10:48.447Z,29.11
2022-08-19T13:13:15.123Z,29.22
2022-08-19T13:15:43.264Z,29.52
2022-08-19T13:18:11.350Z,29.06
2022-08-19T13:20:38.850Z,28.34
2022-08-19T13:23:05.718Z,27.73
2022-08-19T13:25:32.635Z,27.60
2022-08-19T13:28:00.765Z,27.09
2022-08-19T13:30:47.225Z,26.98
2022-08-19T13:33:16.688Z,26.83
2022-08-19T13:35:50.783Z,26.89
2022-08-19T13:38:21.547Z,27.17
2022-08-19T13:40:52.528Z,27.48
2022-08-19T13:43:23.819Z,27.49
2022-08-19T13:45:54.881Z,27.30
2022-08-19T13:48:21.754Z,27.12
2022-08-19T13:50:49.159Z,26.66
2022-08-19T13:53:17.137Z,26.32
2022-08-19T13:55:44.786Z,26.41
2022-08-19T13:58:12.571Z,26.11
2022-08-19T14:00:45.727Z,25.65
2022-08-19T14:03:12.626Z,25.66
2022-08-19T14:05:39.635Z,25.48
2022-08-19T14:08:06.611Z,25.32
2022-08-19T14:10:34.333Z,25.05
2022-08-19T14:13:03.091Z,24.60
2022-08-19T14:15:31.121Z,24.20
2022-08-19T14:17:58.580Z,23.52
2022-08-19T14:20:26.041Z,23.01
2022-08-19T14:22:53.889Z,22.94
2022-08-19T14:25:23.874Z,23.12
2022-08-19T14:27:51.132Z,23.20
2022-08-19T14:30:29.279Z,23.11
2022-08-19T14:32:59.091Z,22.82
2022-08-19T14:35:28.005Z,22.93
2022-08-19T14:37:56.793Z,22.76
2022-08-19T14:40:29.715Z,22.66
2022-08-19T14:43:04.898Z,22.51
2022-08-19T14:45:37.146Z,22.36
2022-08-19T14:48:05.862Z,22.28
2022-08-19T14:50:33.166Z,22.40
2022-08-19T14:53:08.108Z,22.56
2022-08-19T14:55:42.574Z,22.36
2022-08-19T14:58:09.921Z,22.38
2022-08-19T15:00:57.105Z,22.80
2022-08-19T15:03:23.794Z,22.72
2022-08-19T15:05:50.499Z,22.81
2022-08-19T15:08:17.166Z,22.92
2022-08-19T15:10:43.813Z,23.12
2022-08-19T15:13:10.921Z,23.37
2022-08-19T15:15:38.319Z,23.71
2022-08-19T15:18:05.052Z,24.20
2022-08-19T15:20:32.036Z,24.54
2022-08-19T15:23:02.567Z,24.72
2022-08-19T15:25:29.424Z,25.08
2022-08-19T15:27:56.412Z,25.64
2022-08-19T15:30:26.160Z,26.07
2022-08-19T15:32:55.796Z,26.52
2022-08-19T15:35:23.466Z,26.84
2022-08-19T15:37:52.385Z,27.08
2022-08-19T15:40:21.123Z,26.83
2022-08-19T15:42:49.829Z,27.02
2022-08-19T15:45:18.997Z,27.21
2022-08-19T15:47:46.186Z,27.40
2022-08-19T15:50:19.163Z,27.34
2022-08-19T15:52:50.015Z,26.86
2022-08-19T15:55:33.673Z,26.57
2022-08-19T15:58:28.251Z,26.58
2022-08-19T16:01:20.653Z,26.85
2022-08-19T16:04:13.821Z,27.08
2022-08-19T16:06:44.157Z,27.58
2022-08-19T16:09:10.954Z,27.94
2022-08-19T16:11:39.717Z,28.15
2022-08-19T16:14:09.425Z,28.07
2022-08-19T16:16:37.311Z,27.84
2022-08-19T16:19:10.419Z,27.51
2022-08-19T16:21:41.880Z,27.62
2022-08-19T16:24:13.104Z,27.87
2022-08-19T16:26:41.240Z,28.03
2022-08-19T16:29:13.092Z,28.05
2022-08-19T16:31:44.584Z,28.10
2022-08-19T16:34:12.162Z,28.23
2022-08-19T16:36:42.055Z,28.19
2022-08-19T16:39:14.669Z,28.12
2022-08-19T16:41:42.684Z,27.96
2022-08-19T16:44:11.973Z,27.32
2022-08-19T16:46:39.874Z,27.39
2022-08-19T16:49:07.226Z,27.09
2022-08-19T16:51:33.933Z,27.01
2022-08-19T16:54:01.403Z,26.83
2022-08-19T16:56:29.028Z,26.63
2022-08-19T16:58:56.300Z,26.29
2022-08-19T17:01:23.002Z,26.03
2022-08-19T17:03:51.574Z,26.06
2022-08-19T17:06:21.151Z,25.97
2022-08-19T17:08:52.403Z,25.39
2022-08-19T17:11:21.207Z,25.03
2022-08-19T17:13:49.463Z,25.12
2022-08-19T17:16:18.651Z,25.17
2022-08-19T17:18:45.738Z,24.50
2022-08-19T17:21:13.333Z,24.20
2022-08-19T17:23:43.743Z,23.96
2022-08-19T17:26:18.035Z,23.51
2022-08-19T17:28:50.197Z,23.33
2022-08-19T17:31:19.306Z,23.45
2022-08-19T17:33:48.034Z,23.10
2022-08-19T17:36:23.400Z,23.07
2022-08-19T17:38:50.890Z,22.92
2022-08-19T17:41:17.656Z,22.75
2022-08-19T17:43:45.194Z,22.67
2022-08-19T17:46:22.419Z,22.45
2022-08-19T17:48:52.777Z,22.53
2022-08-19T17:51:42.393Z,22.49
2022-08-19T17:54:12.331Z,22.21
2022-08-19T17:56:39.167Z,22.10
2022-08-19T17:59:07.878Z,22.16
2022-08-19T18:01:53.543Z,21.90
2022-08-19T18:04:22.675Z,22.03
2022-08-19T18:06:53.106Z,22.00
2022-08-19T18:09:24.045Z,22.00
2022-08-19T18:11:53.242Z,21.83
2022-08-19T18:14:33.373Z,21.87
2022-08-19T18:17:12.492Z,21.83
2022-08-19T18:19:43.052Z,21.80
2022-08-19T18:22:36.374Z,21.91
2022-08-19T18:25:13.986Z,21.78
2022-08-19T18:27:43.431Z,21.78
2022-08-19T18:30:10.860Z,21.82
2022-08-19T18:32:39.434Z,21.94
2022-08-19T18:35:11.393Z,21.82
2022-08-19T18:37:40.403Z,21.83
2022-08-19T18:40:26.891Z,21.88
2022-08-19T18:43:22.388Z,21.84
2022-08-19T18:46:08.375Z,21.72
2022-08-19T18:48:54.890Z,21.83
2022-08-19T18:51:27.742Z,21.89
2022-08-19T18:53:57.279Z,21.89
2022-08-19T18:56:28.309Z,21.52
2022-08-19T18:58:58.788Z,21.19
2022-08-19T19:01:33.307Z,21.47
2022-08-19T19:04:11.391Z,21.80
2022-08-19T19:06:41.129Z,21.67
2022-08-19T19:09:10.531Z,21.82
2022-08-19T19:11:40.567Z,22.01
2022-08-19T19:14:23.309Z,22.07
2022-08-19T19:17:02.155Z,21.97
2022-08-19T19:19:30.739Z,21.97
2022-08-19T19:21:58.699Z,21.88
2022-08-19T19:24:32.700Z,21.77
2022-08-19T19:27:05.456Z,21.71
2022-08-19T19:29:37.192Z,21.78
2022-08-19T19:32:07.223Z,21.69
2022-08-19T19:34:34.193Z,21.71
2022-08-19T19:37:01.332Z,21.73
2022-08-19T19:39:34.012Z,21.51
2022-08-19T19:42:20.564Z,21.18
2022-08-19T19:44:50.580Z,21.44
2022-08-19T19:47:19.177Z,21.58
2022-08-19T19:52:39.728Z,21.74
2022-08-19T19:55:07.516Z,21.73
2022-08-19T19:57:34.251Z,21.60
2022-08-19T20:00:01.053Z,21.59
2022-08-19T20:02:27.757Z,21.55
2022-08-19T20:04:56.280Z,21.68
2022-08-19T20:07:43.831Z,21.83
2022-08-19T20:10:10.470Z,21.89
2022-08-19T20:12:37.148Z,21.93
2022-08-19T20:15:04.858Z,21.86
2022-08-19T20:17:32.607Z,21.94
2022-08-19T20:19:59.313Z,22.07
2022-08-19T20:22:26.032Z,22.15
2022-08-19T20:24:53.863Z,22.10
2022-08-19T20:27:21.608Z,22.16
2022-08-19T20:29:50.966Z,22.21
2022-08-19T20:32:18.659Z,22.15
2022-08-19T20:34:49.063Z,21.67
2022-08-19T20:37:15.878Z,21.32
2022-08-19T20:39:42.801Z,21.09
2022-08-19T20:42:09.446Z,20.55
2022-08-19T20:44:37.795Z,20.33
2022-08-19T20:47:04.713Z,20.23
2022-08-19T20:49:32.216Z,20.49
2022-08-19T20:51:58.917Z,20.71
2022-08-19T20:54:27.026Z,21.04
2022-08-19T20:56:53.747Z,21.12
2022-08-19T20:59:21.692Z,20.85
2022-08-19T21:01:51.741Z,20.97
2022-08-19T21:04:19.469Z,21.11
2022-08-19T21:06:46.192Z,21.12
2022-08-19T21:09:13.790Z,21.22
2022-08-19T21:11:40.647Z,20.91
2022-08-19T21:14:08.278Z,20.93
2022-08-19T21:16:34.976Z,21.16
2022-08-19T21:19:01.687Z,21.14
2022-08-19T21:21:28.738Z,20.92
2022-08-19T21:23:55.434Z,21.06
2022-08-19T21:26:22.096Z,21.20
2022-08-19T21:28:48.763Z,21.26
2022-08-19T21:31:17.832Z,21.12
2022-08-19T21:33:45.259Z,21.13
2022-08-19T21:36:12.091Z,21.24
2022-08-19T21:38:38.794Z,21.22
2022-08-19T21:41:06.549Z,21.30
2022-08-19T21:43:35.211Z,21.34
2022-08-19T21:46:02.317Z,21.31
2022-08-19T21:48:29.053Z,21.40
2022-08-19T21:50:55.864Z,21.40
2022-08-19T21:53:23.014Z,21.41
2022-08-19T21:55:53.508Z,21.33
2022-08-19T21:58:28.794Z,21.17
2022-08-19T22:00:58.676Z,21.16
2022-08-19T22:03:26.080Z,21.14
2022-08-19T22:05:52.855Z,20.98
2022-08-19T22:08:19.510Z,20.92
2022-08-19T22:10:46.489Z,21.09
2022-08-19T22:13:13.542Z,21.09
2022-08-19T22:15:41.098Z,21.09
2022-08-19T22:18:07.760Z,21.26
2022-08-19T22:20:34.459Z,21.38
2022-08-19T22:23:04.882Z,20.93
2022-08-19T22:25:35.522Z,21.12
2022-08-19T22:28:04.946Z,21.30
2022-08-19T22:30:35.847Z,21.39
2022-08-19T22:33:06.475Z,21.30
2022-08-19T22:35:37.527Z,21.36
2022-08-19T22:38:07.337Z,21.24
2022-08-19T22:40:39.548Z,21.38
2022-08-19T22:43:12.110Z,21.42
2022-08-19T22:45:39.261Z,21.38
2022-08-19T22:48:08.367Z,21.37
2022-08-19T22:50:36.243Z,21.10
2022-08-19T22:53:04.574Z,21.04
2022-08-19T22:55:31.448Z,21.13
2022-08-19T22:57:59.049Z,21.15
2022-08-19T23:00:27.978Z,21.03
2022-08-19T23:02:56.415Z,21.03
2022-08-19T23:05:26.074Z,20.81
2022-08-19T23:07:54.242Z,20.80
2022-08-19T23:10:26.968Z,20.55
2022-08-19T23:12:56.843Z,20.69
2022-08-19T23:15:26.545Z,20.69
2022-08-19T23:17:55.101Z,20.48
2022-08-19T23:20:23.672Z,20.35
2022-08-19T23:22:50.987Z,20.41
2022-08-19T23:25:21.155Z,20.43
2022-08-19T23:28:06.976Z,20.38
2022-08-19T23:30:36.755Z,20.51
2022-08-19T23:33:14.297Z,20.49
2022-08-19T23:35:41.746Z,20.49
2022-08-19T23:38:10.113Z,20.62
2022-08-19T23:40:38.550Z,20.36
2022-08-19T23:43:08.127Z,20.48
2022-08-19T23:45:41.320Z,20.80
2022-08-19T23:48:18.505Z,20.70
2022-08-19T23:50:46.267Z,20.26
2022-08-19T23:53:13.759Z,20.12
2022-08-19T23:55:43.111Z,19.89
2022-08-19T23:58:10.797Z,19.73
